sensor_id;sensor_type;location;lat;lon;timestamp;P1;durP1;ratioP1;P2;durP2;ratioP2
73296;SDS011;61524;50.938;11.396;2024-01-16T00:00:27;3.47;;;1.13;;
73296;SDS011;61524;50.938;11.396;2024-01-16T00:02:53;1.02;;;0.52;;
73296;SDS011;61524;50.938;11.396;2024-01-16T00:05:18;2.87;;;1.00;;
73296;SDS011;61524;50.938;11.396;2024-01-16T00:07:44;1.15;;;0.80;;
73296;SDS011;61524;50.938;11.396;2024-01-16T00:10:09;3.00;;;0.97;;
73296;SDS011;61524;50.938;11.396;2024-01-16T00:12:34;2.28;;;1.30;;
73296;SDS011;61524;50.938;11.396;2024-01-16T00:15:00;2.28;;;0.90;;
73296;SDS011;61524;50.938;11.396;2024-01-16T00:17:25;3.20;;;1.20;;
73296;SDS011;61524;50.938;11.396;2024-01-16T00:19:50;1.80;;;1.00;;
73296;SDS011;61524;50.938;11.396;2024-01-16T00:22:16;1.60;;;0.90;;
73296;SDS011;61524;50.938;11.396;2024-01-16T00:24:41;1.27;;;0.65;;
73296;SDS011;61524;50.938;11.396;2024-01-16T00:27:06;1.93;;;0.83;;
73296;SDS011;61524;50.938;11.396;2024-01-16T00:29:31;2.63;;;0.80;;
73296;SDS011;61524;50.938;11.396;2024-01-16T00:31:57;2.72;;;1.10;;
73296;SDS011;61524;50.938;11.396;2024-01-16T00:34:22;4.80;;;1.63;;
73296;SDS011;61524;50.938;11.396;2024-01-16T00:36:47;2.10;;;0.70;;
73296;SDS011;61524;50.938;11.396;2024-01-16T00:39:13;3.08;;;1.20;;
73296;SDS011;61524;50.938;11.396;2024-01-16T00:41:38;2.85;;;0.98;;
73296;SDS011;61524;50.938;11.396;2024-01-16T00:44:04;2.55;;;0.95;;
73296;SDS011;61524;50.938;11.396;2024-01-16T00:46:29;3.10;;;1.40;;
73296;SDS011;61524;50.938;11.396;2024-01-16T00:48:55;4.28;;;1.25;;
73296;SDS011;61524;50.938;11.396;2024-01-16T00:51:20;2.10;;;0.90;;
73296;SDS011;61524;50.938;11.396;2024-01-16T00:53:45;7.90;;;1.50;;
73296;SDS011;61524;50.938;11.396;2024-01-16T00:56:11;7.07;;;1.20;;
73296;SDS011;61524;50.938;11.396;2024-01-16T00:58:37;3.80;;;1.27;;
73296;SDS011;61524;50.938;11.396;2024-01-16T01:01:02;2.27;;;0.90;;
73296;SDS011;61524;50.938;11.396;2024-01-16T01:03:28;3.22;;;1.40;;
73296;SDS011;61524;50.938;11.396;2024-01-16T01:05:54;1.67;;;1.17;;
73296;SDS011;61524;50.938;11.396;2024-01-16T01:08:19;6.70;;;1.52;;
73296;SDS011;61524;50.938;11.396;2024-01-16T01:10:45;5.27;;;1.53;;
73296;SDS011;61524;50.938;11.396;2024-01-16T01:13:10;2.17;;;1.17;;
73296;SDS011;61524;50.938;11.396;2024-01-16T01:15:35;4.33;;;1.47;;
73296;SDS011;61524;50.938;11.396;2024-01-16T01:18:00;3.50;;;1.60;;
73296;SDS011;61524;50.938;11.396;2024-01-16T01:20:26;4.30;;;1.10;;
73296;SDS011;61524;50.938;11.396;2024-01-16T01:22:51;3.45;;;1.60;;
73296;SDS011;61524;50.938;11.396;2024-01-16T01:25:16;2.27;;;1.17;;
73296;SDS011;61524;50.938;11.396;2024-01-16T01:27:42;5.97;;;1.50;;
73296;SDS011;61524;50.938;11.396;2024-01-16T01:30:07;2.70;;;1.23;;
73296;SDS011;61524;50.938;11.396;2024-01-16T01:32:35;3.95;;;1.67;;
73296;SDS011;61524;50.938;11.396;2024-01-16T01:35:01;2.28;;;1.23;;
73296;SDS011;61524;50.938;11.396;2024-01-16T01:37:26;1.30;;;0.73;;
73296;SDS011;61524;50.938;11.396;2024-01-16T01:39:51;3.10;;;0.88;;
73296;SDS011;61524;50.938;11.396;2024-01-16T01:42:17;4.23;;;1.43;;
73296;SDS011;61524;50.938;11.396;2024-01-16T01:44:42;4.50;;;1.10;;
73296;SDS011;61524;50.938;11.396;2024-01-16T01:47:07;3.97;;;1.27;;
73296;SDS011;61524;50.938;11.396;2024-01-16T01:49:33;1.25;;;0.70;;
73296;SDS011;61524;50.938;11.396;2024-01-16T01:51:59;5.18;;;1.30;;
73296;SDS011;61524;50.938;11.396;2024-01-16T01:54:24;3.53;;;1.60;;
73296;SDS011;61524;50.938;11.396;2024-01-16T01:56:51;2.88;;;1.20;;
73296;SDS011;61524;50.938;11.396;2024-01-16T01:59:19;2.10;;;1.00;;
73296;SDS011;61524;50.938;11.396;2024-01-16T02:01:46;2.45;;;0.95;;
73296;SDS011;61524;50.938;11.396;2024-01-16T02:04:15;4.10;;;1.40;;
73296;SDS011;61524;50.938;11.396;2024-01-16T02:06:42;1.67;;;0.95;;
73296;SDS011;61524;50.938;11.396;2024-01-16T02:09:09;1.67;;;0.80;;
73296;SDS011;61524;50.938;11.396;2024-01-16T02:11:34;5.83;;;1.20;;
73296;SDS011;61524;50.938;11.396;2024-01-16T02:14:00;2.55;;;1.17;;
73296;SDS011;61524;50.938;11.396;2024-01-16T02:16:25;2.07;;;1.00;;
73296;SDS011;61524;50.938;11.396;2024-01-16T02:18:50;2.33;;;1.07;;
73296;SDS011;61524;50.938;11.396;2024-01-16T02:21:20;3.60;;;1.33;;
73296;SDS011;61524;50.938;11.396;2024-01-16T02:23:46;1.52;;;0.75;;
73296;SDS011;61524;50.938;11.396;2024-01-16T02:26:12;5.85;;;1.25;;
73296;SDS011;61524;50.938;11.396;2024-01-16T02:28:38;2.20;;;1.10;;
73296;SDS011;61524;50.938;11.396;2024-01-16T02:31:04;1.53;;;0.93;;
73296;SDS011;61524;50.938;11.396;2024-01-16T02:33:29;4.00;;;1.53;;
73296;SDS011;61524;50.938;11.396;2024-01-16T02:35:54;2.90;;;1.07;;
73296;SDS011;61524;50.938;11.396;2024-01-16T02:38:19;2.70;;;1.00;;
73296;SDS011;61524;50.938;11.396;2024-01-16T02:40:45;2.08;;;0.98;;
73296;SDS011;61524;50.938;11.396;2024-01-16T02:43:10;2.95;;;1.40;;
73296;SDS011;61524;50.938;11.396;2024-01-16T02:45:36;2.45;;;1.20;;
73296;SDS011;61524;50.938;11.396;2024-01-16T02:48:01;2.60;;;1.27;;
73296;SDS011;61524;50.938;11.396;2024-01-16T02:50:28;3.78;;;1.15;;
73296;SDS011;61524;50.938;11.396;2024-01-16T02:52:53;2.42;;;1.30;;
73296;SDS011;61524;50.938;11.396;2024-01-16T02:55:19;3.13;;;1.07;;
73296;SDS011;61524;50.938;11.396;2024-01-16T02:57:44;5.32;;;1.23;;
73296;SDS011;61524;50.938;11.396;2024-01-16T03:00:09;3.80;;;1.07;;
73296;SDS011;61524;50.938;11.396;2024-01-16T03:02:35;2.53;;;0.93;;
73296;SDS011;61524;50.938;11.396;2024-01-16T03:05:01;2.28;;;0.93;;
73296;SDS011;61524;50.938;11.396;2024-01-16T03:07:27;1.95;;;0.85;;
73296;SDS011;61524;50.938;11.396;2024-01-16T03:09:52;3.33;;;1.03;;
73296;SDS011;61524;50.938;11.396;2024-01-16T03:12:17;3.00;;;1.10;;
73296;SDS011;61524;50.938;11.396;2024-01-16T03:14:43;2.50;;;1.13;;
73296;SDS011;61524;50.938;11.396;2024-01-16T03:17:08;2.95;;;0.68;;
73296;SDS011;61524;50.938;11.396;2024-01-16T03:19:33;2.50;;;0.93;;
73296;SDS011;61524;50.938;11.396;2024-01-16T03:21:58;2.23;;;1.13;;
73296;SDS011;61524;50.938;11.396;2024-01-16T03:24:24;2.97;;;1.10;;
73296;SDS011;61524;50.938;11.396;2024-01-16T03:26:49;1.90;;;0.80;;
73296;SDS011;61524;50.938;11.396;2024-01-16T03:29:14;4.07;;;1.40;;
73296;SDS011;61524;50.938;11.396;2024-01-16T03:31:40;2.22;;;0.95;;
73296;SDS011;61524;50.938;11.396;2024-01-16T03:34:05;5.97;;;1.50;;
73296;SDS011;61524;50.938;11.396;2024-01-16T03:36:30;4.30;;;1.70;;
73296;SDS011;61524;50.938;11.396;2024-01-16T03:38:56;7.97;;;1.30;;
73296;SDS011;61524;50.938;11.396;2024-01-16T03:41:21;5.13;;;2.08;;
73296;SDS011;61524;50.938;11.396;2024-01-16T03:43:46;4.63;;;1.63;;
73296;SDS011;61524;50.938;11.396;2024-01-16T03:46:12;4.53;;;1.40;;
73296;SDS011;61524;50.938;11.396;2024-01-16T03:48:37;1.75;;;1.10;;
73296;SDS011;61524;50.938;11.396;2024-01-16T03:51:02;3.50;;;1.70;;
73296;SDS011;61524;50.938;11.396;2024-01-16T03:53:27;2.92;;;1.33;;
73296;SDS011;61524;50.938;11.396;2024-01-16T03:55:53;3.33;;;1.07;;
73296;SDS011;61524;50.938;11.396;2024-01-16T03:58:18;2.30;;;1.00;;
73296;SDS011;61524;50.938;11.396;2024-01-16T04:00:43;3.70;;;1.80;;
73296;SDS011;61524;50.938;11.396;2024-01-16T04:03:09;2.03;;;1.00;;
73296;SDS011;61524;50.938;11.396;2024-01-16T04:05:34;5.93;;;1.40;;
73296;SDS011;61524;50.938;11.396;2024-01-16T04:08:00;3.22;;;1.48;;
73296;SDS011;61524;50.938;11.396;2024-01-16T04:10:25;2.42;;;1.20;;
73296;SDS011;61524;50.938;11.396;2024-01-16T04:12:50;4.28;;;1.42;;
73296;SDS011;61524;50.938;11.396;2024-01-16T04:15:16;1.27;;;0.82;;
73296;SDS011;61524;50.938;11.396;2024-01-16T04:17:41;2.70;;;1.83;;
73296;SDS011;61524;50.938;11.396;2024-01-16T04:20:06;2.25;;;1.17;;
73296;SDS011;61524;50.938;11.396;2024-01-16T04:22:32;3.47;;;1.50;;
73296;SDS011;61524;50.938;11.396;2024-01-16T04:24:57;2.60;;;1.27;;
73296;SDS011;61524;50.938;11.396;2024-01-16T04:27:23;5.00;;;1.60;;
73296;SDS011;61524;50.938;11.396;2024-01-16T04:29:49;2.53;;;1.15;;
73296;SDS011;61524;50.938;11.396;2024-01-16T04:32:14;2.20;;;1.03;;
73296;SDS011;61524;50.938;11.396;2024-01-16T04:34:39;2.50;;;1.30;;
73296;SDS011;61524;50.938;11.396;2024-01-16T04:37:04;4.17;;;1.50;;
73296;SDS011;61524;50.938;11.396;2024-01-16T04:39:30;2.37;;;1.13;;
73296;SDS011;61524;50.938;11.396;2024-01-16T04:41:55;4.63;;;1.60;;
73296;SDS011;61524;50.938;11.396;2024-01-16T04:44:20;3.30;;;1.70;;
73296;SDS011;61524;50.938;11.396;2024-01-16T04:46:45;4.27;;;1.93;;
73296;SDS011;61524;50.938;11.396;2024-01-16T04:49:11;4.37;;;1.30;;
73296;SDS011;61524;50.938;11.396;2024-01-16T04:51:36;2.57;;;1.23;;
73296;SDS011;61524;50.938;11.396;2024-01-16T04:54:01;2.67;;;0.95;;
73296;SDS011;61524;50.938;11.396;2024-01-16T04:56:27;2.60;;;1.27;;
73296;SDS011;61524;50.938;11.396;2024-01-16T04:58:52;7.60;;;1.10;;
73296;SDS011;61524;50.938;11.396;2024-01-16T05:01:18;3.03;;;1.33;;
73296;SDS011;61524;50.938;11.396;2024-01-16T05:03:43;3.10;;;1.17;;
73296;SDS011;61524;50.938;11.396;2024-01-16T05:06:12;5.13;;;2.25;;
73296;SDS011;61524;50.938;11.396;2024-01-16T05:08:38;6.10;;;2.08;;
73296;SDS011;61524;50.938;11.396;2024-01-16T05:11:04;4.70;;;2.43;;
73296;SDS011;61524;50.938;11.396;2024-01-16T05:13:29;4.40;;;1.90;;
73296;SDS011;61524;50.938;11.396;2024-01-16T05:15:54;6.20;;;2.17;;
73296;SDS011;61524;50.938;11.396;2024-01-16T05:18:19;8.55;;;2.90;;
73296;SDS011;61524;50.938;11.396;2024-01-16T05:20:45;5.00;;;2.43;;
73296;SDS011;61524;50.938;11.396;2024-01-16T05:23:10;4.33;;;1.93;;
73296;SDS011;61524;50.938;11.396;2024-01-16T05:25:35;4.07;;;1.10;;
73296;SDS011;61524;50.938;11.396;2024-01-16T05:28:00;3.20;;;1.87;;
73296;SDS011;61524;50.938;11.396;2024-01-16T05:30:26;5.80;;;1.93;;
73296;SDS011;61524;50.938;11.396;2024-01-16T05:32:51;5.33;;;1.87;;
73296;SDS011;61524;50.938;11.396;2024-01-16T05:35:17;3.35;;;1.60;;
73296;SDS011;61524;50.938;11.396;2024-01-16T05:37:42;5.20;;;1.80;;
73296;SDS011;61524;50.938;11.396;2024-01-16T05:40:08;3.70;;;2.10;;
73296;SDS011;61524;50.938;11.396;2024-01-16T05:42:33;3.85;;;1.52;;
73296;SDS011;61524;50.938;11.396;2024-01-16T05:44:58;5.07;;;2.10;;
73296;SDS011;61524;50.938;11.396;2024-01-16T05:47:24;6.03;;;1.70;;
73296;SDS011;61524;50.938;11.396;2024-01-16T05:49:52;7.30;;;2.47;;
73296;SDS011;61524;50.938;11.396;2024-01-16T05:52:18;6.73;;;1.97;;
73296;SDS011;61524;50.938;11.396;2024-01-16T05:54:43;3.43;;;1.23;;
73296;SDS011;61524;50.938;11.396;2024-01-16T05:57:08;3.93;;;1.87;;
73296;SDS011;61524;50.938;11.396;2024-01-16T05:59:33;7.53;;;2.33;;
73296;SDS011;61524;50.938;11.396;2024-01-16T06:01:59;5.80;;;2.13;;
73296;SDS011;61524;50.938;11.396;2024-01-16T06:04:24;7.47;;;1.83;;
73296;SDS011;61524;50.938;11.396;2024-01-16T06:06:50;6.70;;;2.22;;
73296;SDS011;61524;50.938;11.396;2024-01-16T06:09:15;6.50;;;1.83;;
73296;SDS011;61524;50.938;11.396;2024-01-16T06:11:41;4.63;;;2.15;;
73296;SDS011;61524;50.938;11.396;2024-01-16T06:14:06;5.03;;;1.80;;
73296;SDS011;61524;50.938;11.396;2024-01-16T06:16:32;3.28;;;1.70;;
73296;SDS011;61524;50.938;11.396;2024-01-16T06:18:57;4.15;;;1.67;;
73296;SDS011;61524;50.938;11.396;2024-01-16T06:21:23;4.50;;;2.07;;
73296;SDS011;61524;50.938;11.396;2024-01-16T06:23:48;4.00;;;1.77;;
73296;SDS011;61524;50.938;11.396;2024-01-16T06:26:13;7.18;;;2.42;;
73296;SDS011;61524;50.938;11.396;2024-01-16T06:28:39;4.28;;;2.47;;
73296;SDS011;61524;50.938;11.396;2024-01-16T06:31:07;4.57;;;2.63;;
73296;SDS011;61524;50.938;11.396;2024-01-16T06:33:32;4.32;;;1.85;;
73296;SDS011;61524;50.938;11.396;2024-01-16T06:35:57;3.47;;;1.57;;
73296;SDS011;61524;50.938;11.396;2024-01-16T06:38:23;4.13;;;1.63;;
73296;SDS011;61524;50.938;11.396;2024-01-16T06:40:48;5.23;;;2.43;;
73296;SDS011;61524;50.938;11.396;2024-01-16T06:43:14;6.80;;;1.83;;
73296;SDS011;61524;50.938;11.396;2024-01-16T06:45:40;4.90;;;1.42;;
73296;SDS011;61524;50.938;11.396;2024-01-16T06:48:07;5.30;;;1.95;;
73296;SDS011;61524;50.938;11.396;2024-01-16T06:50:32;4.22;;;1.60;;
73296;SDS011;61524;50.938;11.396;2024-01-16T06:52:58;6.53;;;1.95;;
73296;SDS011;61524;50.938;11.396;2024-01-16T06:55:23;2.80;;;1.53;;
73296;SDS011;61524;50.938;11.396;2024-01-16T06:57:48;3.30;;;1.30;;
73296;SDS011;61524;50.938;11.396;2024-01-16T07:00:14;4.57;;;1.90;;
73296;SDS011;61524;50.938;11.396;2024-01-16T07:02:39;5.65;;;1.70;;
73296;SDS011;61524;50.938;11.396;2024-01-16T07:05:04;2.07;;;1.13;;
73296;SDS011;61524;50.938;11.396;2024-01-16T07:07:30;2.35;;;1.42;;
73296;SDS011;61524;50.938;11.396;2024-01-16T07:09:55;3.67;;;1.50;;
73296;SDS011;61524;50.938;11.396;2024-01-16T07:12:20;2.57;;;1.37;;
73296;SDS011;61524;50.938;11.396;2024-01-16T07:14:46;3.83;;;1.60;;
73296;SDS011;61524;50.938;11.396;2024-01-16T07:17:12;6.53;;;2.13;;
73296;SDS011;61524;50.938;11.396;2024-01-16T07:19:37;11.33;;;2.10;;
73296;SDS011;61524;50.938;11.396;2024-01-16T07:22:03;2.50;;;1.53;;
73296;SDS011;61524;50.938;11.396;2024-01-16T07:24:28;3.20;;;1.52;;
73296;SDS011;61524;50.938;11.396;2024-01-16T07:26:53;4.18;;;2.03;;
73296;SDS011;61524;50.938;11.396;2024-01-16T07:29:19;4.10;;;1.70;;
73296;SDS011;61524;50.938;11.396;2024-01-16T07:31:45;4.35;;;1.63;;
73296;SDS011;61524;50.938;11.396;2024-01-16T07:34:10;5.10;;;1.83;;
73296;SDS011;61524;50.938;11.396;2024-01-16T07:36:36;5.20;;;1.60;;
73296;SDS011;61524;50.938;11.396;2024-01-16T07:39:01;6.57;;;2.17;;
73296;SDS011;61524;50.938;11.396;2024-01-16T07:41:26;5.87;;;2.07;;
73296;SDS011;61524;50.938;11.396;2024-01-16T07:43:51;3.07;;;1.47;;
73296;SDS011;61524;50.938;11.396;2024-01-16T07:46:17;3.27;;;1.40;;
73296;SDS011;61524;50.938;11.396;2024-01-16T07:48:42;5.25;;;1.70;;
73296;SDS011;61524;50.938;11.396;2024-01-16T07:51:08;3.35;;;1.65;;
73296;SDS011;61524;50.938;11.396;2024-01-16T07:53:33;5.50;;;1.70;;
73296;SDS011;61524;50.938;11.396;2024-01-16T07:55:58;4.80;;;1.67;;
73296;SDS011;61524;50.938;11.396;2024-01-16T07:58:23;9.03;;;2.80;;
73296;SDS011;61524;50.938;11.396;2024-01-16T08:00:49;6.30;;;2.47;;
73296;SDS011;61524;50.938;11.396;2024-01-16T08:03:14;5.68;;;2.42;;
73296;SDS011;61524;50.938;11.396;2024-01-16T08:05:39;3.90;;;1.83;;
73296;SDS011;61524;50.938;11.396;2024-01-16T08:08:05;2.60;;;1.42;;
73296;SDS011;61524;50.938;11.396;2024-01-16T08:10:30;3.78;;;2.03;;
73296;SDS011;61524;50.938;11.396;2024-01-16T08:12:56;4.78;;;2.03;;
73296;SDS011;61524;50.938;11.396;2024-01-16T08:15:21;3.13;;;1.67;;
73296;SDS011;61524;50.938;11.396;2024-01-16T08:17:47;4.80;;;2.08;;
73296;SDS011;61524;50.938;11.396;2024-01-16T08:20:12;3.10;;;1.42;;
73296;SDS011;61524;50.938;11.396;2024-01-16T08:22:38;4.23;;;1.47;;
73296;SDS011;61524;50.938;11.396;2024-01-16T08:25:04;3.38;;;1.55;;
73296;SDS011;61524;50.938;11.396;2024-01-16T08:27:33;3.75;;;1.92;;
73296;SDS011;61524;50.938;11.396;2024-01-16T08:29:58;4.30;;;1.58;;
73296;SDS011;61524;50.938;11.396;2024-01-16T08:32:24;3.60;;;1.70;;
73296;SDS011;61524;50.938;11.396;2024-01-16T08:34:49;5.00;;;2.10;;
73296;SDS011;61524;50.938;11.396;2024-01-16T08:37:14;5.40;;;1.40;;
73296;SDS011;61524;50.938;11.396;2024-01-16T08:39:39;4.37;;;1.67;;
73296;SDS011;61524;50.938;11.396;2024-01-16T08:42:05;3.83;;;1.60;;
73296;SDS011;61524;50.938;11.396;2024-01-16T08:44:30;5.25;;;1.42;;
73296;SDS011;61524;50.938;11.396;2024-01-16T08:46:56;5.50;;;1.77;;
73296;SDS011;61524;50.938;11.396;2024-01-16T08:49:22;5.90;;;1.50;;
73296;SDS011;61524;50.938;11.396;2024-01-16T08:51:48;2.43;;;1.50;;
73296;SDS011;61524;50.938;11.396;2024-01-16T08:54:13;4.82;;;1.48;;
73296;SDS011;61524;50.938;11.396;2024-01-16T08:56:38;2.27;;;1.07;;
73296;SDS011;61524;50.938;11.396;2024-01-16T08:59:03;3.73;;;1.87;;
73296;SDS011;61524;50.938;11.396;2024-01-16T09:01:29;4.40;;;1.52;;
73296;SDS011;61524;50.938;11.396;2024-01-16T09:03:54;4.77;;;1.40;;
73296;SDS011;61524;50.938;11.396;2024-01-16T09:06:19;5.30;;;1.53;;
73296;SDS011;61524;50.938;11.396;2024-01-16T09:08:45;5.40;;;1.30;;
73296;SDS011;61524;50.938;11.396;2024-01-16T09:11:10;2.47;;;1.20;;
73296;SDS011;61524;50.938;11.396;2024-01-16T09:13:36;4.00;;;1.80;;
73296;SDS011;61524;50.938;11.396;2024-01-16T09:16:02;3.40;;;1.30;;
73296;SDS011;61524;50.938;11.396;2024-01-16T09:18:27;3.42;;;1.40;;
73296;SDS011;61524;50.938;11.396;2024-01-16T09:20:52;5.60;;;1.30;;
73296;SDS011;61524;50.938;11.396;2024-01-16T09:23:18;3.47;;;1.57;;
73296;SDS011;61524;50.938;11.396;2024-01-16T09:25:43;5.60;;;1.33;;
73296;SDS011;61524;50.938;11.396;2024-01-16T09:28:08;3.83;;;1.77;;
73296;SDS011;61524;50.938;11.396;2024-01-16T09:30:33;7.07;;;1.50;;
73296;SDS011;61524;50.938;11.396;2024-01-16T09:32:59;4.20;;;1.40;;
73296;SDS011;61524;50.938;11.396;2024-01-16T09:35:24;3.33;;;1.10;;
73296;SDS011;61524;50.938;11.396;2024-01-16T09:37:49;3.20;;;1.40;;
73296;SDS011;61524;50.938;11.396;2024-01-16T09:40:16;2.75;;;1.33;;
73296;SDS011;61524;50.938;11.396;2024-01-16T09:42:41;3.90;;;1.63;;
73296;SDS011;61524;50.938;11.396;2024-01-16T09:45:06;6.80;;;1.40;;
73296;SDS011;61524;50.938;11.396;2024-01-16T09:47:33;5.40;;;1.83;;
73296;SDS011;61524;50.938;11.396;2024-01-16T09:49:59;3.33;;;1.40;;
73296;SDS011;61524;50.938;11.396;2024-01-16T09:52:25;4.55;;;1.90;;
73296;SDS011;61524;50.938;11.396;2024-01-16T09:54:50;8.65;;;1.83;;
73296;SDS011;61524;50.938;11.396;2024-01-16T09:57:16;5.68;;;1.70;;
73296;SDS011;61524;50.938;11.396;2024-01-16T09:59:43;6.00;;;1.92;;
73296;SDS011;61524;50.938;11.396;2024-01-16T10:02:09;6.13;;;1.40;;
73296;SDS011;61524;50.938;11.396;2024-01-16T10:04:35;5.47;;;2.20;;
73296;SDS011;61524;50.938;11.396;2024-01-16T10:07:01;5.47;;;1.65;;
73296;SDS011;61524;50.938;11.396;2024-01-16T10:09:26;3.15;;;1.35;;
73296;SDS011;61524;50.938;11.396;2024-01-16T10:11:51;8.20;;;1.80;;
73296;SDS011;61524;50.938;11.396;2024-01-16T10:14:17;4.75;;;1.80;;
73296;SDS011;61524;50.938;11.396;2024-01-16T10:16:56;3.55;;;1.27;;
73296;SDS011;61524;50.938;11.396;2024-01-16T10:19:28;5.50;;;1.63;;
73296;SDS011;61524;50.938;11.396;2024-01-16T10:22:04;3.88;;;1.35;;
73296;SDS011;61524;50.938;11.396;2024-01-16T10:24:29;7.88;;;2.10;;
73296;SDS011;61524;50.938;11.396;2024-01-16T10:26:58;6.07;;;1.85;;
73296;SDS011;61524;50.938;11.396;2024-01-16T10:29:25;7.25;;;1.70;;
73296;SDS011;61524;50.938;11.396;2024-01-16T10:31:50;9.68;;;1.92;;
73296;SDS011;61524;50.938;11.396;2024-01-16T10:34:19;6.77;;;1.87;;
73296;SDS011;61524;50.938;11.396;2024-01-16T10:36:49;7.45;;;1.85;;
73296;SDS011;61524;50.938;11.396;2024-01-16T10:39:14;4.45;;;1.98;;
73296;SDS011;61524;50.938;11.396;2024-01-16T10:41:40;4.40;;;1.95;;
73296;SDS011;61524;50.938;11.396;2024-01-16T10:44:05;5.27;;;2.10;;
73296;SDS011;61524;50.938;11.396;2024-01-16T10:46:35;10.32;;;2.25;;
73296;SDS011;61524;50.938;11.396;2024-01-16T10:49:01;6.15;;;2.25;;
73296;SDS011;61524;50.938;11.396;2024-01-16T10:51:27;5.07;;;1.92;;
73296;SDS011;61524;50.938;11.396;2024-01-16T10:54:00;3.78;;;1.80;;
73296;SDS011;61524;50.938;11.396;2024-01-16T10:56:28;2.67;;;1.23;;
73296;SDS011;61524;50.938;11.396;2024-01-16T11:01:22;5.57;;;1.88;;
73296;SDS011;61524;50.938;11.396;2024-01-16T11:03:49;4.85;;;2.00;;
73296;SDS011;61524;50.938;11.396;2024-01-16T11:06:15;5.22;;;1.73;;
73296;SDS011;61524;50.938;11.396;2024-01-16T11:08:41;4.22;;;2.15;;
73296;SDS011;61524;50.938;11.396;2024-01-16T11:11:07;4.05;;;1.92;;
73296;SDS011;61524;50.938;11.396;2024-01-16T11:13:33;6.00;;;2.33;;
73296;SDS011;61524;50.938;11.396;2024-01-16T11:16:02;5.28;;;2.05;;
73296;SDS011;61524;50.938;11.396;2024-01-16T11:18:30;3.00;;;1.90;;
73296;SDS011;61524;50.938;11.396;2024-01-16T11:20:55;9.27;;;2.15;;
73296;SDS011;61524;50.938;11.396;2024-01-16T11:23:21;6.63;;;2.55;;
73296;SDS011;61524;50.938;11.396;2024-01-16T11:25:46;6.82;;;3.05;;
73296;SDS011;61524;50.938;11.396;2024-01-16T11:28:12;8.75;;;3.17;;
73296;SDS011;61524;50.938;11.396;2024-01-16T11:30:38;4.60;;;2.10;;
73296;SDS011;61524;50.938;11.396;2024-01-16T11:33:04;4.78;;;1.92;;
73296;SDS011;61524;50.938;11.396;2024-01-16T11:35:33;5.15;;;2.08;;
73296;SDS011;61524;50.938;11.396;2024-01-16T11:38:17;7.20;;;1.88;;
73296;SDS011;61524;50.938;11.396;2024-01-16T11:40:44;8.20;;;3.25;;
73296;SDS011;61524;50.938;11.396;2024-01-16T11:43:34;4.90;;;1.80;;
73296;SDS011;61524;50.938;11.396;2024-01-16T11:46:00;4.25;;;2.05;;
73296;SDS011;61524;50.938;11.396;2024-01-16T11:48:26;4.00;;;1.88;;
73296;SDS011;61524;50.938;11.396;2024-01-16T11:50:52;4.70;;;1.70;;
73296;SDS011;61524;50.938;11.396;2024-01-16T12:01:25;6.82;;;1.70;;
73296;SDS011;61524;50.938;11.396;2024-01-16T12:06:29;4.07;;;1.67;;
73296;SDS011;61524;50.938;11.396;2024-01-16T12:09:09;4.70;;;1.93;;
73296;SDS011;61524;50.938;11.396;2024-01-16T12:11:35;2.72;;;1.33;;
73296;SDS011;61524;50.938;11.396;2024-01-16T12:14:03;9.13;;;2.20;;
73296;SDS011;61524;50.938;11.396;2024-01-16T12:16:29;2.80;;;1.50;;
73296;SDS011;61524;50.938;11.396;2024-01-16T12:19:04;3.33;;;1.57;;
73296;SDS011;61524;50.938;11.396;2024-01-16T12:21:29;3.85;;;1.70;;
73296;SDS011;61524;50.938;11.396;2024-01-16T12:23:55;5.95;;;2.20;;
73296;SDS011;61524;50.938;11.396;2024-01-16T12:26:21;6.20;;;1.70;;
73296;SDS011;61524;50.938;11.396;2024-01-16T12:28:49;4.05;;;1.60;;
73296;SDS011;61524;50.938;11.396;2024-01-16T12:31:17;3.75;;;1.70;;
73296;SDS011;61524;50.938;11.396;2024-01-16T12:33:43;3.78;;;1.27;;
73296;SDS011;61524;50.938;11.396;2024-01-16T12:36:08;4.30;;;2.10;;
73296;SDS011;61524;50.938;11.396;2024-01-16T12:38:35;2.80;;;1.63;;
73296;SDS011;61524;50.938;11.396;2024-01-16T12:41:01;5.20;;;1.90;;
73296;SDS011;61524;50.938;11.396;2024-01-16T12:43:27;2.95;;;1.48;;
73296;SDS011;61524;50.938;11.396;2024-01-16T12:45:56;5.47;;;1.75;;
73296;SDS011;61524;50.938;11.396;2024-01-16T12:48:27;4.90;;;2.08;;
73296;SDS011;61524;50.938;11.396;2024-01-16T12:51:02;3.85;;;1.88;;
73296;SDS011;61524;50.938;11.396;2024-01-16T12:53:27;4.63;;;1.65;;
73296;SDS011;61524;50.938;11.396;2024-01-16T12:55:59;3.38;;;1.15;;
73296;SDS011;61524;50.938;11.396;2024-01-16T12:58:24;2.92;;;1.60;;
73296;SDS011;61524;50.938;11.396;2024-01-16T13:00:52;3.35;;;1.73;;
73296;SDS011;61524;50.938;11.396;2024-01-16T13:03:19;4.57;;;1.70;;
73296;SDS011;61524;50.938;11.396;2024-01-16T13:05:44;3.95;;;2.10;;
73296;SDS011;61524;50.938;11.396;2024-01-16T13:08:16;7.22;;;2.13;;
73296;SDS011;61524;50.938;11.396;2024-01-16T13:10:42;5.07;;;1.95;;
73296;SDS011;61524;50.938;11.396;2024-01-16T13:13:14;5.03;;;1.90;;
73296;SDS011;61524;50.938;11.396;2024-01-16T13:15:40;6.20;;;2.13;;
73296;SDS011;61524;50.938;11.396;2024-01-16T13:18:05;5.43;;;1.88;;
73296;SDS011;61524;50.938;11.396;2024-01-16T13:20:31;3.63;;;1.58;;
73296;SDS011;61524;50.938;11.396;2024-01-16T13:22:56;4.17;;;1.87;;
73296;SDS011;61524;50.938;11.396;2024-01-16T13:25:22;6.47;;;2.03;;
73296;SDS011;61524;50.938;11.396;2024-01-16T13:27:47;4.17;;;2.20;;
73296;SDS011;61524;50.938;11.396;2024-01-16T13:30:12;6.87;;;2.30;;
73296;SDS011;61524;50.938;11.396;2024-01-16T13:32:38;5.55;;;2.30;;
73296;SDS011;61524;50.938;11.396;2024-01-16T13:35:03;6.03;;;2.90;;
73296;SDS011;61524;50.938;11.396;2024-01-16T13:37:33;5.05;;;2.55;;
73296;SDS011;61524;50.938;11.396;2024-01-16T13:39:58;5.77;;;2.37;;
73296;SDS011;61524;50.938;11.396;2024-01-16T13:42:23;4.45;;;1.70;;
73296;SDS011;61524;50.938;11.396;2024-01-16T13:44:49;6.80;;;2.10;;
73296;SDS011;61524;50.938;11.396;2024-01-16T13:47:14;5.03;;;2.20;;
73296;SDS011;61524;50.938;11.396;2024-01-16T13:49:40;10.07;;;3.47;;
73296;SDS011;61524;50.938;11.396;2024-01-16T13:52:05;8.60;;;2.85;;
73296;SDS011;61524;50.938;11.396;2024-01-16T13:54:31;5.50;;;2.45;;
73296;SDS011;61524;50.938;11.396;2024-01-16T13:56:56;4.78;;;2.22;;
73296;SDS011;61524;50.938;11.396;2024-01-16T13:59:21;4.30;;;1.75;;
73296;SDS011;61524;50.938;11.396;2024-01-16T14:01:47;6.70;;;1.83;;
73296;SDS011;61524;50.938;11.396;2024-01-16T14:04:12;3.20;;;1.53;;
73296;SDS011;61524;50.938;11.396;2024-01-16T14:06:37;5.10;;;2.23;;
73296;SDS011;61524;50.938;11.396;2024-01-16T14:09:02;4.53;;;1.70;;
73296;SDS011;61524;50.938;11.396;2024-01-16T14:11:28;6.22;;;1.90;;
73296;SDS011;61524;50.938;11.396;2024-01-16T14:13:53;4.00;;;1.97;;
73296;SDS011;61524;50.938;11.396;2024-01-16T14:16:19;5.40;;;1.77;;
73296;SDS011;61524;50.938;11.396;2024-01-16T14:18:44;5.80;;;1.50;;
73296;SDS011;61524;50.938;11.396;2024-01-16T14:21:10;3.53;;;1.80;;
73296;SDS011;61524;50.938;11.396;2024-01-16T14:23:35;2.87;;;1.43;;
73296;SDS011;61524;50.938;11.396;2024-01-16T14:26:00;3.63;;;1.67;;
73296;SDS011;61524;50.938;11.396;2024-01-16T14:28:26;6.35;;;2.60;;
73296;SDS011;61524;50.938;11.396;2024-01-16T14:30:52;2.90;;;1.45;;
73296;SDS011;61524;50.938;11.396;2024-01-16T14:33:17;3.20;;;1.90;;
73296;SDS011;61524;50.938;11.396;2024-01-16T14:35:43;3.83;;;2.03;;
73296;SDS011;61524;50.938;11.396;2024-01-16T14:38:09;4.70;;;2.08;;